sensor_id;sensor_type;location;lat;lon;timestamp;temperature;humidity
15926;DHT22;8062;53.882;10.642;2023-07-13T00:01:16;16.30;99.90
15926;DHT22;8062;53.882;10.642;2023-07-13T00:02:36;16.30;99.90
15926;DHT22;8062;53.882;10.642;2023-07-13T00:03:56;16.30;99.90
15926;DHT22;8062;53.882;10.642;2023-07-13T00:05:16;16.30;99.90
15926;DHT22;8062;53.882;10.642;2023-07-13T00:06:36;16.30;99.90
15926;DHT22;8062;53.882;10.642;2023-07-13T00:07:55;16.30;99.90
15926;DHT22;8062;53.882;10.642;2023-07-13T00:09:16;16.20;99.90
15926;DHT22;8062;53.882;10.642;2023-07-13T00:10:40;16.20;99.90
15926;DHT22;8062;53.882;10.642;2023-07-13T00:12:00;16.20;99.90
15926;DHT22;8062;53.882;10.642;2023-07-13T00:13:20;16.20;99.90
15926;DHT22;8062;53.882;10.642;2023-07-13T00:14:39;16.20;99.90
15926;DHT22;8062;53.882;10.642;2023-07-13T00:15:59;16.30;99.90
15926;DHT22;8062;53.882;10.642;2023-07-13T00:17:20;16.20;99.90
15926;DHT22;8062;53.882;10.642;2023-07-13T00:18:40;16.20;99.90
15926;DHT22;8062;53.882;10.642;2023-07-13T00:19:59;16.20;99.90
15926;DHT22;8062;53.882;10.642;2023-07-13T00:21:18;16.20;99.90
15926;DHT22;8062;53.882;10.642;2023-07-13T00:22:39;16.20;99.90
15926;DHT22;8062;53.882;10.642;2023-07-13T00:23:58;16.20;99.90
15926;DHT22;8062;53.882;10.642;2023-07-13T00:25:21;16.10;99.90
15926;DHT22;8062;53.882;10.642;2023-07-13T00:26:41;16.10;99.90
15926;DHT22;8062;53.882;10.642;2023-07-13T00:28:04;16.10;99.90
15926;DHT22;8062;53.882;10.642;2023-07-13T00:29:25;16.10;99.90
15926;DHT22;8062;53.882;10.642;2023-07-13T00:30:45;16.20;99.90
15926;DHT22;8062;53.882;10.642;2023-07-13T00:32:06;16.20;99.90
15926;DHT22;8062;53.882;10.642;2023-07-13T00:33:28;16.20;99.90
15926;DHT22;8062;53.882;10.642;2023-07-13T00:34:47;16.10;99.90
15926;DHT22;8062;53.882;10.642;2023-07-13T00:36:08;16.10;99.90
15926;DHT22;8062;53.882;10.642;2023-07-13T00:37:27;16.10;99.90
15926;DHT22;8062;53.882;10.642;2023-07-13T00:38:47;16.00;99.90
15926;DHT22;8062;53.882;10.642;2023-07-13T00:40:07;16.00;99.90
15926;DHT22;8062;53.882;10.642;2023-07-13T00:41:28;16.00;99.90
15926;DHT22;8062;53.882;10.642;2023-07-13T00:42:48;16.00;99.90
15926;DHT22;8062;53.882;10.642;2023-07-13T00:44:14;15.90;99.90
15926;DHT22;8062;53.882;10.642;2023-07-13T00:46:53;15.80;99.90
15926;DHT22;8062;53.882;10.642;2023-07-13T00:48:25;15.80;99.90
15926;DHT22;8062;53.882;10.642;2023-07-13T00:49:45;15.80;99.90
15926;DHT22;8062;53.882;10.642;2023-07-13T00:51:05;15.70;99.90
15926;DHT22;8062;53.882;10.642;2023-07-13T00:52:25;15.70;99.90
15926;DHT22;8062;53.882;10.642;2023-07-13T00:53:45;15.70;99.90
15926;DHT22;8062;53.882;10.642;2023-07-13T00:55:04;15.60;99.90
15926;DHT22;8062;53.882;10.642;2023-07-13T00:56:25;15.50;99.90
15926;DHT22;8062;53.882;10.642;2023-07-13T00:57:45;15.50;99.90
15926;DHT22;8062;53.882;10.642;2023-07-13T00:59:06;15.40;99.90
15926;DHT22;8062;53.882;10.642;2023-07-13T01:00:27;15.40;99.90
15926;DHT22;8062;53.882;10.642;2023-07-13T01:01:48;15.30;99.90
15926;DHT22;8062;53.882;10.642;2023-07-13T01:03:08;15.30;99.90
15926;DHT22;8062;53.882;10.642;2023-07-13T01:04:27;15.20;99.90
15926;DHT22;8062;53.882;10.642;2023-07-13T01:05:49;15.20;99.90
15926;DHT22;8062;53.882;10.642;2023-07-13T01:07:09;15.10;99.90
15926;DHT22;8062;53.882;10.642;2023-07-13T01:08:29;15.10;99.90
15926;DHT22;8062;53.882;10.642;2023-07-13T01:09:49;15.00;99.90
15926;DHT22;8062;53.882;10.642;2023-07-13T01:11:08;15.00;99.90
15926;DHT22;8062;53.882;10.642;2023-07-13T01:12:28;15.00;99.90
15926;DHT22;8062;53.882;10.642;2023-07-13T01:13:50;15.00;99.90
15926;DHT22;8062;53.882;10.642;2023-07-13T01:15:42;15.00;99.90
15926;DHT22;8062;53.882;10.642;2023-07-13T01:17:04;14.90;99.90
15926;DHT22;8062;53.882;10.642;2023-07-13T01:18:28;14.80;99.90
15926;DHT22;8062;53.882;10.642;2023-07-13T01:19:48;14.80;99.90
15926;DHT22;8062;53.882;10.642;2023-07-13T01:21:08;14.80;99.90
15926;DHT22;8062;53.882;10.642;2023-07-13T01:22:27;14.80;99.90
15926;DHT22;8062;53.882;10.642;2023-07-13T01:23:47;14.80;99.90
15926;DHT22;8062;53.882;10.642;2023-07-13T01:25:07;14.70;99.90
15926;DHT22;8062;53.882;10.642;2023-07-13T01:26:28;14.70;99.90
15926;DHT22;8062;53.882;10.642;2023-07-13T01:27:47;14.60;99.90
15926;DHT22;8062;53.882;10.642;2023-07-13T01:29:07;14.60;99.90
15926;DHT22;8062;53.882;10.642;2023-07-13T01:30:27;14.60;99.90
15926;DHT22;8062;53.882;10.642;2023-07-13T01:31:47;14.50;99.90
15926;DHT22;8062;53.882;10.642;2023-07-13T01:33:08;14.50;99.90
15926;DHT22;8062;53.882;10.642;2023-07-13T01:34:28;14.50;99.90
15926;DHT22;8062;53.882;10.642;2023-07-13T01:35:48;14.40;99.90
15926;DHT22;8062;53.882;10.642;2023-07-13T01:37:10;14.40;99.90
15926;DHT22;8062;53.882;10.642;2023-07-13T01:38:30;14.40;99.90
15926;DHT22;8062;53.882;10.642;2023-07-13T01:39:49;14.30;99.90
15926;DHT22;8062;53.882;10.642;2023-07-13T01:41:09;14.30;99.90
15926;DHT22;8062;53.882;10.642;2023-07-13T01:42:29;14.20;99.90
15926;DHT22;8062;53.882;10.642;2023-07-13T01:43:48;14.20;99.90
15926;DHT22;8062;53.882;10.642;2023-07-13T01:45:08;14.20;99.90
15926;DHT22;8062;53.882;10.642;2023-07-13T01:46:28;14.30;99.90
15926;DHT22;8062;53.882;10.642;2023-07-13T01:47:47;14.20;99.90
15926;DHT22;8062;53.882;10.642;2023-07-13T01:49:07;14.20;99.90
15926;DHT22;8062;53.882;10.642;2023-07-13T01:50:26;14.20;99.90
15926;DHT22;8062;53.882;10.642;2023-07-13T01:51:46;14.10;99.90
15926;DHT22;8062;53.882;10.642;2023-07-13T01:53:06;14.10;99.90
15926;DHT22;8062;53.882;10.642;2023-07-13T01:54:26;14.10;99.90
15926;DHT22;8062;53.882;10.642;2023-07-13T01:55:46;14.10;99.90
15926;DHT22;8062;53.882;10.642;2023-07-13T01:57:08;14.10;99.90
15926;DHT22;8062;53.882;10.642;2023-07-13T01:58:27;14.10;99.90
15926;DHT22;8062;53.882;10.642;2023-07-13T01:59:46;14.00;99.90
15926;DHT22;8062;53.882;10.642;2023-07-13T02:01:06;14.00;99.90
15926;DHT22;8062;53.882;10.642;2023-07-13T02:02:26;14.00;99.90
15926;DHT22;8062;53.882;10.642;2023-07-13T02:03:45;13.90;99.90
15926;DHT22;8062;53.882;10.642;2023-07-13T02:05:06;14.00;99.90
15926;DHT22;8062;53.882;10.642;2023-07-13T02:06:26;14.00;99.90
15926;DHT22;8062;53.882;10.642;2023-07-13T02:07:47;14.00;99.90
15926;DHT22;8062;53.882;10.642;2023-07-13T02:09:06;14.00;99.90
15926;DHT22;8062;53.882;10.642;2023-07-13T02:10:26;14.00;99.90
15926;DHT22;8062;53.882;10.642;2023-07-13T02:11:45;13.90;99.90
15926;DHT22;8062;53.882;10.642;2023-07-13T02:13:06;13.90;99.90
15926;DHT22;8062;53.882;10.642;2023-07-13T02:14:26;13.80;99.90
15926;DHT22;8062;53.882;10.642;2023-07-13T02:15:46;13.90;99.90
15926;DHT22;8062;53.882;10.642;2023-07-13T02:17:06;13.80;99.90
15926;DHT22;8062;53.882;10.642;2023-07-13T02:18:25;13.80;99.90
15926;DHT22;8062;53.882;10.642;2023-07-13T02:19:45;13.80;99.90
15926;DHT22;8062;53.882;10.642;2023-07-13T02:21:05;13.90;99.90
15926;DHT22;8062;53.882;10.642;2023-07-13T02:22:24;13.90;99.90
15926;DHT22;8062;53.882;10.642;2023-07-13T02:23:44;13.90;99.90
15926;DHT22;8062;53.882;10.642;2023-07-13T02:25:04;13.90;99.90
15926;DHT22;8062;53.882;10.642;2023-07-13T02:26:24;13.90;99.90
15926;DHT22;8062;53.882;10.642;2023-07-13T02:27:44;13.90;99.90
15926;DHT22;8062;53.882;10.642;2023-07-13T02:29:03;13.90;99.90
15926;DHT22;8062;53.882;10.642;2023-07-13T02:30:23;13.90;99.90
15926;DHT22;8062;53.882;10.642;2023-07-13T02:31:47;13.90;99.90
15926;DHT22;8062;53.882;10.642;2023-07-13T02:33:06;13.90;99.90
15926;DHT22;8062;53.882;10.642;2023-07-13T02:34:26;13.90;99.90
15926;DHT22;8062;53.882;10.642;2023-07-13T02:35:45;13.90;99.90
15926;DHT22;8062;53.882;10.642;2023-07-13T02:37:05;13.90;99.90
15926;DHT22;8062;53.882;10.642;2023-07-13T02:38:24;13.90;99.90
15926;DHT22;8062;53.882;10.642;2023-07-13T02:39:44;13.90;99.90
15926;DHT22;8062;53.882;10.642;2023-07-13T02:41:05;13.80;99.90
15926;DHT22;8062;53.882;10.642;2023-07-13T02:42:25;13.80;99.90
15926;DHT22;8062;53.882;10.642;2023-07-13T02:43:45;13.70;99.90
15926;DHT22;8062;53.882;10.642;2023-07-13T02:45:05;13.70;99.90
15926;DHT22;8062;53.882;10.642;2023-07-13T02:46:25;13.70;99.90
15926;DHT22;8062;53.882;10.642;2023-07-13T02:47:45;13.60;99.90
15926;DHT22;8062;53.882;10.642;2023-07-13T02:49:05;13.70;99.90
15926;DHT22;8062;53.882;10.642;2023-07-13T02:50:25;13.70;99.90
15926;DHT22;8062;53.882;10.642;2023-07-13T02:51:44;13.60;99.90
15926;DHT22;8062;53.882;10.642;2023-07-13T02:53:04;13.60;99.90
15926;DHT22;8062;53.882;10.642;2023-07-13T02:54:23;13.60;99.90
15926;DHT22;8062;53.882;10.642;2023-07-13T02:55:43;13.60;99.90
15926;DHT22;8062;53.882;10.642;2023-07-13T02:57:06;13.60;99.90
15926;DHT22;8062;53.882;10.642;2023-07-13T02:58:26;13.60;99.90
15926;DHT22;8062;53.882;10.642;2023-07-13T02:59:45;13.60;99.90
15926;DHT22;8062;53.882;10.642;2023-07-13T03:01:11;13.60;99.90
15926;DHT22;8062;53.882;10.642;2023-07-13T03:02:32;13.60;99.90
15926;DHT22;8062;53.882;10.642;2023-07-13T03:03:52;13.60;99.90
15926;DHT22;8062;53.882;10.642;2023-07-13T03:05:13;13.60;99.90
15926;DHT22;8062;53.882;10.642;2023-07-13T03:06:34;13.60;99.90
15926;DHT22;8062;53.882;10.642;2023-07-13T03:07:53;13.60;99.90
15926;DHT22;8062;53.882;10.642;2023-07-13T03:09:15;13.50;99.90
15926;DHT22;8062;53.882;10.642;2023-07-13T03:10:40;13.60;99.90
15926;DHT22;8062;53.882;10.642;2023-07-13T03:12:03;13.50;99.90
15926;DHT22;8062;53.882;10.642;2023-07-13T03:13:25;13.50;99.90
15926;DHT22;8062;53.882;10.642;2023-07-13T03:14:44;13.50;99.90
15926;DHT22;8062;53.882;10.642;2023-07-13T03:16:04;13.50;99.90
15926;DHT22;8062;53.882;10.642;2023-07-13T03:17:24;13.50;99.90
15926;DHT22;8062;53.882;10.642;2023-07-13T03:18:47;13.50;99.90
15926;DHT22;8062;53.882;10.642;2023-07-13T03:20:08;13.50;99.90
15926;DHT22;8062;53.882;10.642;2023-07-13T03:21:27;13.50;99.90
15926;DHT22;8062;53.882;10.642;2023-07-13T03:22:47;13.50;99.90
15926;DHT22;8062;53.882;10.642;2023-07-13T03:24:07;13.50;99.90
15926;DHT22;8062;53.882;10.642;2023-07-13T03:25:26;13.50;99.90
15926;DHT22;8062;53.882;10.642;2023-07-13T03:26:47;13.50;99.90
15926;DHT22;8062;53.882;10.642;2023-07-13T03:28:07;13.50;99.90
15926;DHT22;8062;53.882;10.642;2023-07-13T03:29:27;13.50;99.90
15926;DHT22;8062;53.882;10.642;2023-07-13T03:30:46;13.50;99.90
15926;DHT22;8062;53.882;10.642;2023-07-13T03:32:07;13.50;99.90
15926;DHT22;8062;53.882;10.642;2023-07-13T03:33:26;13.50;99.90
15926;DHT22;8062;53.882;10.642;2023-07-13T03:34:46;13.50;99.90
15926;DHT22;8062;53.882;10.642;2023-07-13T03:36:10;13.50;99.90
15926;DHT22;8062;53.882;10.642;2023-07-13T03:37:29;13.50;99.90
15926;DHT22;8062;53.882;10.642;2023-07-13T03:38:54;13.50;99.90
15926;DHT22;8062;53.882;10.642;2023-07-13T03:40:17;13.60;99.90
15926;DHT22;8062;53.882;10.642;2023-07-13T03:41:38;13.60;99.90
15926;DHT22;8062;53.882;10.642;2023-07-13T03:42:58;13.70;99.90
15926;DHT22;8062;53.882;10.642;2023-07-13T03:44:18;13.70;99.90
15926;DHT22;8062;53.882;10.642;2023-07-13T03:45:41;13.80;99.90
15926;DHT22;8062;53.882;10.642;2023-07-13T03:47:00;13.80;99.90
15926;DHT22;8062;53.882;10.642;2023-07-13T03:48:20;13.80;99.90
15926;DHT22;8062;53.882;10.642;2023-07-13T03:49:40;13.80;99.90
15926;DHT22;8062;53.882;10.642;2023-07-13T03:50:59;13.90;99.90
15926;DHT22;8062;53.882;10.642;2023-07-13T03:52:19;14.00;99.90
15926;DHT22;8062;53.882;10.642;2023-07-13T03:53:41;14.10;99.90
15926;DHT22;8062;53.882;10.642;2023-07-13T03:55:01;14.20;99.90
15926;DHT22;8062;53.882;10.642;2023-07-13T03:56:21;14.20;99.90
15926;DHT22;8062;53.882;10.642;2023-07-13T03:57:40;14.30;99.90
15926;DHT22;8062;53.882;10.642;2023-07-13T03:59:02;14.30;99.90
15926;DHT22;8062;53.882;10.642;2023-07-13T04:00:23;14.30;99.90
15926;DHT22;8062;53.882;10.642;2023-07-13T04:01:43;14.40;99.90
15926;DHT22;8062;53.882;10.642;2023-07-13T04:03:06;14.40;99.90
15926;DHT22;8062;53.882;10.642;2023-07-13T04:04:26;14.50;99.90
15926;DHT22;8062;53.882;10.642;2023-07-13T04:05:46;14.40;99.90
15926;DHT22;8062;53.882;10.642;2023-07-13T04:07:06;14.50;99.90
15926;DHT22;8062;53.882;10.642;2023-07-13T04:08:28;14.50;99.90
15926;DHT22;8062;53.882;10.642;2023-07-13T04:09:48;14.50;99.90
15926;DHT22;8062;53.882;10.642;2023-07-13T04:11:07;14.60;99.90
15926;DHT22;8062;53.882;10.642;2023-07-13T04:12:27;14.60;99.90
15926;DHT22;8062;53.882;10.642;2023-07-13T04:13:47;14.60;99.90
15926;DHT22;8062;53.882;10.642;2023-07-13T04:15:07;14.60;99.90
15926;DHT22;8062;53.882;10.642;2023-07-13T04:16:27;14.70;99.90
15926;DHT22;8062;53.882;10.642;2023-07-13T04:17:46;14.70;99.90
15926;DHT22;8062;53.882;10.642;2023-07-13T04:19:07;14.80;99.90
15926;DHT22;8062;53.882;10.642;2023-07-13T04:20:26;14.80;99.90
15926;DHT22;8062;53.882;10.642;2023-07-13T04:21:46;14.80;99.90
15926;DHT22;8062;53.882;10.642;2023-07-13T04:23:06;14.90;99.90
15926;DHT22;8062;53.882;10.642;2023-07-13T04:24:25;14.90;99.90
15926;DHT22;8062;53.882;10.642;2023-07-13T04:25:49;14.90;99.90
15926;DHT22;8062;53.882;10.642;2023-07-13T04:27:11;15.00;99.90
15926;DHT22;8062;53.882;10.642;2023-07-13T04:28:31;15.00;99.90
15926;DHT22;8062;53.882;10.642;2023-07-13T04:29:50;15.10;99.90
15926;DHT22;8062;53.882;10.642;2023-07-13T04:31:10;15.10;99.90
15926;DHT22;8062;53.882;10.642;2023-07-13T04:32:30;15.20;99.90
15926;DHT22;8062;53.882;10.642;2023-07-13T04:33:50;15.30;99.90
15926;DHT22;8062;53.882;10.642;2023-07-13T04:35:09;15.30;99.90
15926;DHT22;8062;53.882;10.642;2023-07-13T04:36:29;15.30;99.90
15926;DHT22;8062;53.882;10.642;2023-07-13T04:37:49;15.30;99.90
15926;DHT22;8062;53.882;10.642;2023-07-13T04:39:09;15.40;99.90
15926;DHT22;8062;53.882;10.642;2023-07-13T04:40:29;15.40;99.90
15926;DHT22;8062;53.882;10.642;2023-07-13T04:41:49;15.50;99.90
15926;DHT22;8062;53.882;10.642;2023-07-13T04:43:08;15.50;99.90
15926;DHT22;8062;53.882;10.642;2023-07-13T04:44:28;15.50;99.90
15926;DHT22;8062;53.882;10.642;2023-07-13T04:45:47;15.50;99.90
15926;DHT22;8062;53.882;10.642;2023-07-13T04:47:07;15.60;99.90
15926;DHT22;8062;53.882;10.642;2023-07-13T04:48:27;15.70;99.90
15926;DHT22;8062;53.882;10.642;2023-07-13T04:49:46;15.70;99.90
15926;DHT22;8062;53.882;10.642;2023-07-13T04:51:06;15.80;99.90
15926;DHT22;8062;53.882;10.642;2023-07-13T04:52:26;15.80;99.90
15926;DHT22;8062;53.882;10.642;2023-07-13T04:53:45;15.90;99.90
15926;DHT22;8062;53.882;10.642;2023-07-13T04:55:05;15.90;99.90
15926;DHT22;8062;53.882;10.642;2023-07-13T04:56:25;16.00;99.90
15926;DHT22;8062;53.882;10.642;2023-07-13T04:57:46;16.10;99.90
15926;DHT22;8062;53.882;10.642;2023-07-13T04:59:05;16.10;99.90
15926;DHT22;8062;53.882;10.642;2023-07-13T05:00:26;16.20;99.90
15926;DHT22;8062;53.882;10.642;2023-07-13T05:01:45;16.30;99.90
15926;DHT22;8062;53.882;10.642;2023-07-13T05:03:05;16.40;99.90
15926;DHT22;8062;53.882;10.642;2023-07-13T05:04:25;16.40;99.90
15926;DHT22;8062;53.882;10.642;2023-07-13T05:05:54;16.50;99.90
15926;DHT22;8062;53.882;10.642;2023-07-13T05:07:15;16.50;99.90
15926;DHT22;8062;53.882;10.642;2023-07-13T05:08:34;16.60;99.90
15926;DHT22;8062;53.882;10.642;2023-07-13T05:09:54;16.70;99.90
15926;DHT22;8062;53.882;10.642;2023-07-13T05:11:13;16.70;99.90
15926;DHT22;8062;53.882;10.642;2023-07-13T05:12:33;16.80;99.90
15926;DHT22;8062;53.882;10.642;2023-07-13T05:13:53;16.80;99.90
15926;DHT22;8062;53.882;10.642;2023-07-13T05:15:13;16.90;99.90
15926;DHT22;8062;53.882;10.642;2023-07-13T05:16:32;16.90;99.90
15926;DHT22;8062;53.882;10.642;2023-07-13T05:17:52;16.90;99.90
15926;DHT22;8062;53.882;10.642;2023-07-13T05:19:11;17.00;99.90
15926;DHT22;8062;53.882;10.642;2023-07-13T05:20:31;17.00;99.90
15926;DHT22;8062;53.882;10.642;2023-07-13T05:21:51;17.00;99.90
15926;DHT22;8062;53.882;10.642;2023-07-13T05:23:10;17.10;99.90
15926;DHT22;8062;53.882;10.642;2023-07-13T05:24:30;17.00;99.90
15926;DHT22;8062;53.882;10.642;2023-07-13T05:25:49;17.00;99.90
15926;DHT22;8062;53.882;10.642;2023-07-13T05:27:08;16.90;99.90
15926;DHT22;8062;53.882;10.642;2023-07-13T05:28:30;16.90;99.90
15926;DHT22;8062;53.882;10.642;2023-07-13T05:29:50;16.90;99.90
15926;DHT22;8062;53.882;10.642;2023-07-13T05:31:10;17.00;99.90
15926;DHT22;8062;53.882;10.642;2023-07-13T05:32:29;17.10;99.90
15926;DHT22;8062;53.882;10.642;2023-07-13T05:33:49;17.10;99.90
15926;DHT22;8062;53.882;10.642;2023-07-13T05:35:08;17.10;99.90
15926;DHT22;8062;53.882;10.642;2023-07-13T05:36:28;17.10;99.90
15926;DHT22;8062;53.882;10.642;2023-07-13T05:37:47;17.10;99.90
15926;DHT22;8062;53.882;10.642;2023-07-13T05:39:07;17.10;99.90
15926;DHT22;8062;53.882;10.642;2023-07-13T05:40:27;17.20;99.90
15926;DHT22;8062;53.882;10.642;2023-07-13T05:41:47;17.20;99.90
15926;DHT22;8062;53.882;10.642;2023-07-13T05:43:06;17.30;99.90
15926;DHT22;8062;53.882;10.642;2023-07-13T05:44:26;17.30;99.90
15926;DHT22;8062;53.882;10.642;2023-07-13T05:45:45;17.30;99.90
15926;DHT22;8062;53.882;10.642;2023-07-13T05:47:05;17.40;99.90
15926;DHT22;8062;53.882;10.642;2023-07-13T05:48:25;17.40;99.90
15926;DHT22;8062;53.882;10.642;2023-07-13T05:49:44;17.40;99.90
15926;DHT22;8062;53.882;10.642;2023-07-13T05:51:04;17.40;99.90
15926;DHT22;8062;53.882;10.642;2023-07-13T05:52:23;17.40;99.90
15926;DHT22;8062;53.882;10.642;2023-07-13T05:53:43;17.50;99.90
15926;DHT22;8062;53.882;10.642;2023-07-13T05:55:02;17.50;99.90
15926;DHT22;8062;53.882;10.642;2023-07-13T05:56:22;17.50;99.90
15926;DHT22;8062;53.882;10.642;2023-07-13T05:57:42;17.60;99.90
15926;DHT22;8062;53.882;10.642;2023-07-13T05:59:01;17.70;99.90
15926;DHT22;8062;53.882;10.642;2023-07-13T06:00:21;17.80;99.90
15926;DHT22;8062;53.882;10.642;2023-07-13T06:01:41;17.80;99.90
15926;DHT22;8062;53.882;10.642;2023-07-13T06:03:00;17.90;99.90
15926;DHT22;8062;53.882;10.642;2023-07-13T06:04:20;18.00;99.90
15926;DHT22;8062;53.882;10.642;2023-07-13T06:05:41;18.10;99.90
15926;DHT22;8062;53.882;10.642;2023-07-13T06:07:00;18.20;99.90
15926;DHT22;8062;53.882;10.642;2023-07-13T06:08:20;18.20;99.90
15926;DHT22;8062;53.882;10.642;2023-07-13T06:09:39;18.20;99.90
15926;DHT22;8062;53.882;10.642;2023-07-13T06:11:24;18.20;99.90
15926;DHT22;8062;53.882;10.642;2023-07-13T06:12:42;18.20;99.90
15926;DHT22;8062;53.882;10.642;2023-07-13T06:14:02;18.40;99.90
15926;DHT22;8062;53.882;10.642;2023-07-13T06:15:23;18.40;99.90
15926;DHT22;8062;53.882;10.642;2023-07-13T06:16:42;18.40;99.90
15926;DHT22;8062;53.882;10.642;2023-07-13T06:18:02;18.50;99.90
15926;DHT22;8062;53.882;10.642;2023-07-13T06:19:22;18.60;99.90
15926;DHT22;8062;53.882;10.642;2023-07-13T06:20:41;18.70;99.90
15926;DHT22;8062;53.882;10.642;2023-07-13T06:22:01;18.90;99.90
15926;DHT22;8062;53.882;10.642;2023-07-13T06:23:20;19.00;99.90
15926;DHT22;8062;53.882;10.642;2023-07-13T06:24:40;19.20;99.90
15926;DHT22;8062;53.882;10.642;2023-07-13T06:25:59;19.50;99.90
15926;DHT22;8062;53.882;10.642;2023-07-13T06:27:19;19.50;99.90
15926;DHT22;8062;53.882;10.642;2023-07-13T06:28:38;19.60;99.90
15926;DHT22;8062;53.882;10.642;2023-07-13T06:29:59;19.60;99.90
15926;DHT22;8062;53.882;10.642;2023-07-13T06:31:18;19.70;99.90
15926;DHT22;8062;53.882;10.642;2023-07-13T06:32:38;19.70;99.90
15926;DHT22;8062;53.882;10.642;2023-07-13T06:33:57;19.90;99.90
15926;DHT22;8062;53.882;10.642;2023-07-13T06:35:17;20.00;99.90
15926;DHT22;8062;53.882;10.642;2023-07-13T06:36:36;20.00;99.90
15926;DHT22;8062;53.882;10.642;2023-07-13T06:37:57;20.00;99.90
15926;DHT22;8062;53.882;10.642;2023-07-13T06:39:16;20.10;99.90
15926;DHT22;8062;53.882;10.642;2023-07-13T06:40:36;20.10;99.90
15926;DHT22;8062;53.882;10.642;2023-07-13T06:41:55;20.00;99.90
15926;DHT22;8062;53.882;10.642;2023-07-13T06:43:15;19.90;99.90
15926;DHT22;8062;53.882;10.642;2023-07-13T06:44:34;19.80;99.90
15926;DHT22;8062;53.882;10.642;2023-07-13T06:45:55;19.70;99.90
15926;DHT22;8062;53.882;10.642;2023-07-13T06:47:14;19.70;99.90
15926;DHT22;8062;53.882;10.642;2023-07-13T06:48:34;19.50;99.90
15926;DHT22;8062;53.882;10.642;2023-07-13T06:49:53;19.50;99.90
15926;DHT22;8062;53.882;10.642;2023-07-13T06:51:13;19.50;99.90
15926;DHT22;8062;53.882;10.642;2023-07-13T06:52:33;19.60;99.90
15926;DHT22;8062;53.882;10.642;2023-07-13T06:53:52;19.60;99.90
15926;DHT22;8062;53.882;10.642;2023-07-13T06:55:12;19.60;99.90
15926;DHT22;8062;53.882;10.642;2023-07-13T06:56:31;19.60;99.90
15926;DHT22;8062;53.882;10.642;2023-07-13T06:57:51;19.60;99.90
15926;DHT22;8062;53.882;10.642;2023-07-13T06:59:11;19.70;99.90
15926;DHT22;8062;53.882;10.642;2023-07-13T07:00:30;19.80;99.90
15926;DHT22;8062;53.882;10.642;2023-07-13T07:01:50;19.80;99.90
15926;DHT22;8062;53.882;10.642;2023-07-13T07:03:09;19.90;99.90
15926;DHT22;8062;53.882;10.642;2023-07-13T07:04:29;19.80;99.90
15926;DHT22;8062;53.882;10.642;2023-07-13T07:05:48;19.90;99.90
15926;DHT22;8062;53.882;10.642;2023-07-13T07:07:08;19.90;99.90
15926;DHT22;8062;53.882;10.642;2023-07-13T07:08:28;20.00;99.90
15926;DHT22;8062;53.882;10.642;2023-07-13T07:09:47;20.10;99.90
15926;DHT22;8062;53.882;10.642;2023-07-13T07:11:12;20.20;99.90
15926;DHT22;8062;53.882;10.642;2023-07-13T07:12:34;20.10;99.90
15926;DHT22;8062;53.882;10.642;2023-07-13T07:13:54;20.10;99.90
15926;DHT22;8062;53.882;10.642;2023-07-13T07:15:14;20.10;99.90
15926;DHT22;8062;53.882;10.642;2023-07-13T07:16:33;20.00;99.90
15926;DHT22;8062;53.882;10.642;2023-07-13T07:17:53;19.90;99.90
15926;DHT22;8062;53.882;10.642;2023-07-13T07:19:12;19.90;99.90
15926;DHT22;8062;53.882;10.642;2023-07-13T07:20:32;19.80;99.90
15926;DHT22;8062;53.882;10.642;2023-07-13T07:21:52;19.80;99.90
15926;DHT22;8062;53.882;10.642;2023-07-13T07:23:11;19.80;99.90
15926;DHT22;8062;53.882;10.642;2023-07-13T07:24:30;19.90;99.90
15926;DHT22;8062;53.882;10.642;2023-07-13T07:25:50;19.80;99.90
15926;DHT22;8062;53.882;10.642;2023-07-13T07:27:10;19.90;99.90
15926;DHT22;8062;53.882;10.642;2023-07-13T07:28:30;20.10;99.90
15926;DHT22;8062;53.882;10.642;2023-07-13T07:29:50;20.30;99.90
15926;DHT22;8062;53.882;10.642;2023-07-13T07:31:10;20.50;99.90
15926;DHT22;8062;53.882;10.642;2023-07-13T07:32:30;20.70;99.90
15926;DHT22;8062;53.882;10.642;2023-07-13T07:33:50;20.70;99.90
15926;DHT22;8062;53.882;10.642;2023-07-13T07:35:09;20.80;99.90
15926;DHT22;8062;53.882;10.642;2023-07-13T07:36:29;20.70;99.90
15926;DHT22;8062;53.882;10.642;2023-07-13T07:37:49;20.50;99.90
15926;DHT22;8062;53.882;10.642;2023-07-13T07:39:08;20.50;99.90
15926;DHT22;8062;53.882;10.642;2023-07-13T07:40:28;20.50;99.90
15926;DHT22;8062;53.882;10.642;2023-07-13T07:41:47;20.60;99.90
15926;DHT22;8062;53.882;10.642;2023-07-13T07:43:08;20.60;99.90
15926;DHT22;8062;53.882;10.642;2023-07-13T07:44:28;20.60;99.90
15926;DHT22;8062;53.882;10.642;2023-07-13T07:45:47;20.70;99.90
15926;DHT22;8062;53.882;10.642;2023-07-13T07:47:07;20.60;99.90
15926;DHT22;8062;53.882;10.642;2023-07-13T07:48:27;20.70;99.90
15926;DHT22;8062;53.882;10.642;2023-07-13T07:49:47;20.80;99.90
15926;DHT22;8062;53.882;10.642;2023-07-13T07:51:06;20.90;99.90
15926;DHT22;8062;53.882;10.642;2023-07-13T07:52:26;21.00;99.90
15926;DHT22;8062;53.882;10.642;2023-07-13T07:53:45;21.10;99.90
15926;DHT22;8062;53.882;10.642;2023-07-13T07:55:07;21.20;99.90
15926;DHT22;8062;53.882;10.642;2023-07-13T07:56:26;21.30;99.90
15926;DHT22;8062;53.882;10.642;2023-07-13T07:57:46;21.30;99.90
15926;DHT22;8062;53.882;10.642;2023-07-13T07:59:05;21.40;99.90
15926;DHT22;8062;53.882;10.642;2023-07-13T08:00:25;21.50;99.90
15926;DHT22;8062;53.882;10.642;2023-07-13T08:01:44;21.60;99.90
15926;DHT22;8062;53.882;10.642;2023-07-13T08:03:05;21.60;99.90
15926;DHT22;8062;53.882;10.642;2023-07-13T08:04:25;21.50;99.90
15926;DHT22;8062;53.882;10.642;2023-07-13T08:05:44;21.50;99.90
15926;DHT22;8062;53.882;10.642;2023-07-13T08:07:04;21.60;99.90
15926;DHT22;8062;53.882;10.642;2023-07-13T08:08:24;21.60;99.90
15926;DHT22;8062;53.882;10.642;2023-07-13T08:09:44;21.60;99.90
15926;DHT22;8062;53.882;10.642;2023-07-13T08:11:05;21.50;99.90
15926;DHT22;8062;53.882;10.642;2023-07-13T08:12:25;21.40;99.90
15926;DHT22;8062;53.882;10.642;2023-07-13T08:13:44;21.50;99.90
15926;DHT22;8062;53.882;10.642;2023-07-13T08:15:05;21.50;99.90
15926;DHT22;8062;53.882;10.642;2023-07-13T08:16:25;21.40;99.90
15926;DHT22;8062;53.882;10.642;2023-07-13T08:17:45;21.50;99.90
15926;DHT22;8062;53.882;10.642;2023-07-13T08:19:04;21.50;99.90
15926;DHT22;8062;53.882;10.642;2023-07-13T08:20:25;21.60;99.90
15926;DHT22;8062;53.882;10.642;2023-07-13T08:21:44;21.80;99.90
15926;DHT22;8062;53.882;10.642;2023-07-13T08:23:04;21.90;99.90
15926;DHT22;8062;53.882;10.642;2023-07-13T08:24:23;22.10;99.90
15926;DHT22;8062;53.882;10.642;2023-07-13T08:25:53;22.30;99.90
15926;DHT22;8062;53.882;10.642;2023-07-13T08:27:12;22.60;99.90
15926;DHT22;8062;53.882;10.642;2023-07-13T08:28:33;22.80;99.90